sensor_id;sensor_type;location;lat;lon;timestamp;temperature;humidity
19206;DHT22;59358;52.134;5.596;2022-10-13T00:01:13;11.20;99.90
19206;DHT22;59358;52.134;5.596;2022-10-13T00:03:41;11.30;99.90
19206;DHT22;59358;52.134;5.596;2022-10-13T00:06:10;11.30;99.90
19206;DHT22;59358;52.134;5.596;2022-10-13T00:08:38;11.30;99.90
19206;DHT22;59358;52.134;5.596;2022-10-13T00:11:09;11.30;99.90
19206;DHT22;59358;52.134;5.596;2022-10-13T00:13:38;11.30;99.90
19206;DHT22;59358;52.134;5.596;2022-10-13T00:16:06;11.30;99.90
19206;DHT22;59358;52.134;5.596;2022-10-13T00:18:33;11.30;99.90
19206;DHT22;59358;52.134;5.596;2022-10-13T00:20:59;11.30;99.90
19206;DHT22;59358;52.134;5.596;2022-10-13T00:23:26;11.40;99.90
19206;DHT22;59358;52.134;5.596;2022-10-13T00:25:53;11.40;99.90
19206;DHT22;59358;52.134;5.596;2022-10-13T00:28:20;11.40;99.90
19206;DHT22;59358;52.134;5.596;2022-10-13T00:30:48;11.40;99.90
19206;DHT22;59358;52.134;5.596;2022-10-13T00:33:15;11.40;99.90
19206;DHT22;59358;52.134;5.596;2022-10-13T00:35:43;11.40;99.90
19206;DHT22;59358;52.134;5.596;2022-10-13T00:38:10;11.40;99.90
19206;DHT22;59358;52.134;5.596;2022-10-13T00:40:45;11.40;99.90
19206;DHT22;59358;52.134;5.596;2022-10-13T00:43:15;11.50;99.90
19206;DHT22;59358;52.134;5.596;2022-10-13T00:45:42;11.50;99.90
19206;DHT22;59358;52.134;5.596;2022-10-13T00:48:12;11.40;99.90
19206;DHT22;59358;52.134;5.596;2022-10-13T00:50:40;11.40;99.90
19206;DHT22;59358;52.134;5.596;2022-10-13T00:53:09;11.40;99.90
19206;DHT22;59358;52.134;5.596;2022-10-13T00:55:38;11.50;99.90
19206;DHT22;59358;52.134;5.596;2022-10-13T00:58:07;11.50;99.90
19206;DHT22;59358;52.134;5.596;2022-10-13T01:00:35;11.60;99.90
19206;DHT22;59358;52.134;5.596;2022-10-13T01:03:02;11.60;99.90
19206;DHT22;59358;52.134;5.596;2022-10-13T01:05:31;11.60;99.90
19206;DHT22;59358;52.134;5.596;2022-10-13T01:07:58;11.60;99.90
19206;DHT22;59358;52.134;5.596;2022-10-13T01:10:34;11.60;99.90
19206;DHT22;59358;52.134;5.596;2022-10-13T01:13:08;11.60;99.90
19206;DHT22;59358;52.134;5.596;2022-10-13T01:15:40;11.70;99.90
19206;DHT22;59358;52.134;5.596;2022-10-13T01:18:14;11.70;99.90
19206;DHT22;59358;52.134;5.596;2022-10-13T01:21:12;11.70;99.90
19206;DHT22;59358;52.134;5.596;2022-10-13T01:24:22;11.70;99.90
19206;DHT22;59358;52.134;5.596;2022-10-13T01:27:03;11.70;99.90
19206;DHT22;59358;52.134;5.596;2022-10-13T01:30:07;11.70;99.90
19206;DHT22;59358;52.134;5.596;2022-10-13T01:32:52;11.80;99.90
19206;DHT22;59358;52.134;5.596;2022-10-13T01:35:29;11.80;99.90
19206;DHT22;59358;52.134;5.596;2022-10-13T01:38:02;11.80;99.90
19206;DHT22;59358;52.134;5.596;2022-10-13T01:40:37;11.80;99.90
19206;DHT22;59358;52.134;5.596;2022-10-13T01:43:09;11.80;99.90
19206;DHT22;59358;52.134;5.596;2022-10-13T01:45:41;11.70;99.90
19206;DHT22;59358;52.134;5.596;2022-10-13T01:48:10;11.70;99.90
19206;DHT22;59358;52.134;5.596;2022-10-13T01:50:38;11.70;99.90
19206;DHT22;59358;52.134;5.596;2022-10-13T01:53:06;11.70;99.90
19206;DHT22;59358;52.134;5.596;2022-10-13T01:55:33;11.80;99.90
19206;DHT22;59358;52.134;5.596;2022-10-13T01:58:00;11.70;99.90
19206;DHT22;59358;52.134;5.596;2022-10-13T02:00:29;11.80;99.90
19206;DHT22;59358;52.134;5.596;2022-10-13T02:03:14;11.80;99.90
19206;DHT22;59358;52.134;5.596;2022-10-13T02:05:46;11.80;99.90
19206;DHT22;59358;52.134;5.596;2022-10-13T02:08:21;11.80;99.90
19206;DHT22;59358;52.134;5.596;2022-10-13T02:10:52;11.80;99.90
19206;DHT22;59358;52.134;5.596;2022-10-13T02:13:23;11.80;99.90
19206;DHT22;59358;52.134;5.596;2022-10-13T02:15:54;11.80;99.90
19206;DHT22;59358;52.134;5.596;2022-10-13T02:18:26;11.80;99.90
19206;DHT22;59358;52.134;5.596;2022-10-13T02:20:55;11.80;99.90
19206;DHT22;59358;52.134;5.596;2022-10-13T02:23:22;11.90;99.90
19206;DHT22;59358;52.134;5.596;2022-10-13T02:25:49;11.90;99.90
19206;DHT22;59358;52.134;5.596;2022-10-13T02:28:16;11.90;99.90
19206;DHT22;59358;52.134;5.596;2022-10-13T02:30:45;11.90;99.90
19206;DHT22;59358;52.134;5.596;2022-10-13T02:33:13;11.90;99.90
19206;DHT22;59358;52.134;5.596;2022-10-13T02:35:42;12.00;99.90
19206;DHT22;59358;52.134;5.596;2022-10-13T02:38:09;12.00;99.90
19206;DHT22;59358;52.134;5.596;2022-10-13T02:40:37;11.90;99.90
19206;DHT22;59358;52.134;5.596;2022-10-13T02:43:03;12.00;99.90
19206;DHT22;59358;52.134;5.596;2022-10-13T02:45:30;11.90;99.90
19206;DHT22;59358;52.134;5.596;2022-10-13T02:47:57;12.00;99.90
19206;DHT22;59358;52.134;5.596;2022-10-13T02:50:24;12.00;99.90
19206;DHT22;59358;52.134;5.596;2022-10-13T02:52:52;12.00;99.90
19206;DHT22;59358;52.134;5.596;2022-10-13T02:55:20;12.00;99.90
19206;DHT22;59358;52.134;5.596;2022-10-13T02:57:46;12.00;99.90
19206;DHT22;59358;52.134;5.596;2022-10-13T03:00:14;11.90;99.90
19206;DHT22;59358;52.134;5.596;2022-10-13T03:02:41;11.90;99.90
19206;DHT22;59358;52.134;5.596;2022-10-13T03:05:08;11.90;99.90
19206;DHT22;59358;52.134;5.596;2022-10-13T03:07:35;12.00;99.90
19206;DHT22;59358;52.134;5.596;2022-10-13T03:10:04;12.00;99.90
19206;DHT22;59358;52.134;5.596;2022-10-13T03:12:31;12.00;99.90
19206;DHT22;59358;52.134;5.596;2022-10-13T03:14:58;12.10;99.90
19206;DHT22;59358;52.134;5.596;2022-10-13T03:17:25;12.20;99.90
19206;DHT22;59358;52.134;5.596;2022-10-13T03:19:51;12.10;99.90
19206;DHT22;59358;52.134;5.596;2022-10-13T03:22:18;12.00;99.90
19206;DHT22;59358;52.134;5.596;2022-10-13T03:24:45;12.00;99.90
19206;DHT22;59358;52.134;5.596;2022-10-13T03:27:14;12.00;99.90
19206;DHT22;59358;52.134;5.596;2022-10-13T03:29:41;12.00;99.90
19206;DHT22;59358;52.134;5.596;2022-10-13T03:32:08;11.90;99.90
19206;DHT22;59358;52.134;5.596;2022-10-13T03:34:35;11.90;99.90
19206;DHT22;59358;52.134;5.596;2022-10-13T03:37:02;11.90;99.90
19206;DHT22;59358;52.134;5.596;2022-10-13T03:39:29;11.90;99.90
19206;DHT22;59358;52.134;5.596;2022-10-13T03:41:56;11.90;99.90
19206;DHT22;59358;52.134;5.596;2022-10-13T03:44:24;11.90;99.90
19206;DHT22;59358;52.134;5.596;2022-10-13T03:46:51;12.00;99.90
19206;DHT22;59358;52.134;5.596;2022-10-13T03:49:18;12.00;99.90
19206;DHT22;59358;52.134;5.596;2022-10-13T03:51:45;12.00;99.90
19206;DHT22;59358;52.134;5.596;2022-10-13T03:54:12;12.00;99.90
19206;DHT22;59358;52.134;5.596;2022-10-13T03:56:39;12.10;99.90
19206;DHT22;59358;52.134;5.596;2022-10-13T03:59:07;12.10;99.90
19206;DHT22;59358;52.134;5.596;2022-10-13T04:01:35;12.10;99.90
19206;DHT22;59358;52.134;5.596;2022-10-13T04:04:02;12.10;99.90
19206;DHT22;59358;52.134;5.596;2022-10-13T04:06:29;12.10;99.90
19206;DHT22;59358;52.134;5.596;2022-10-13T04:08:57;12.00;99.90
19206;DHT22;59358;52.134;5.596;2022-10-13T04:11:24;12.00;99.90
19206;DHT22;59358;52.134;5.596;2022-10-13T04:13:51;12.10;99.90
19206;DHT22;59358;52.134;5.596;2022-10-13T04:16:20;12.00;99.90
19206;DHT22;59358;52.134;5.596;2022-10-13T04:18:52;12.00;99.90
19206;DHT22;59358;52.134;5.596;2022-10-13T04:21:20;12.00;99.90
19206;DHT22;59358;52.134;5.596;2022-10-13T04:23:47;12.00;99.90
19206;DHT22;59358;52.134;5.596;2022-10-13T04:26:16;12.00;99.90
19206;DHT22;59358;52.134;5.596;2022-10-13T04:28:43;12.00;99.90
19206;DHT22;59358;52.134;5.596;2022-10-13T04:31:10;12.00;99.90
19206;DHT22;59358;52.134;5.596;2022-10-13T04:33:37;12.00;99.90
19206;DHT22;59358;52.134;5.596;2022-10-13T04:36:07;12.00;99.90
19206;DHT22;59358;52.134;5.596;2022-10-13T04:38:34;12.10;99.90
19206;DHT22;59358;52.134;5.596;2022-10-13T04:41:02;12.10;99.90
19206;DHT22;59358;52.134;5.596;2022-10-13T04:43:29;12.10;99.90
19206;DHT22;59358;52.134;5.596;2022-10-13T04:45:59;12.10;99.90
19206;DHT22;59358;52.134;5.596;2022-10-13T04:48:26;12.20;99.90
19206;DHT22;59358;52.134;5.596;2022-10-13T04:50:58;12.10;99.90
19206;DHT22;59358;52.134;5.596;2022-10-13T04:53:26;12.10;99.90
19206;DHT22;59358;52.134;5.596;2022-10-13T04:55:54;12.10;99.90
19206;DHT22;59358;52.134;5.596;2022-10-13T04:58:21;12.10;99.90
19206;DHT22;59358;52.134;5.596;2022-10-13T05:00:48;12.10;99.90
19206;DHT22;59358;52.134;5.596;2022-10-13T05:03:15;12.10;99.90
19206;DHT22;59358;52.134;5.596;2022-10-13T05:05:42;12.10;99.90
19206;DHT22;59358;52.134;5.596;2022-10-13T05:08:09;12.10;99.90
19206;DHT22;59358;52.134;5.596;2022-10-13T05:10:37;12.10;99.90
19206;DHT22;59358;52.134;5.596;2022-10-13T05:13:04;12.10;99.90
19206;DHT22;59358;52.134;5.596;2022-10-13T05:15:30;12.10;99.90
19206;DHT22;59358;52.134;5.596;2022-10-13T05:17:57;12.10;99.90
19206;DHT22;59358;52.134;5.596;2022-10-13T05:20:25;12.20;99.90
19206;DHT22;59358;52.134;5.596;2022-10-13T05:22:51;12.20;99.90
19206;DHT22;59358;52.134;5.596;2022-10-13T05:25:18;12.20;99.90
19206;DHT22;59358;52.134;5.596;2022-10-13T05:27:46;12.20;99.90
19206;DHT22;59358;52.134;5.596;2022-10-13T05:30:13;12.20;99.90
19206;DHT22;59358;52.134;5.596;2022-10-13T05:32:40;12.20;99.90
19206;DHT22;59358;52.134;5.596;2022-10-13T05:35:07;12.20;99.90
19206;DHT22;59358;52.134;5.596;2022-10-13T05:37:34;12.20;99.90
19206;DHT22;59358;52.134;5.596;2022-10-13T05:40:01;12.20;99.90
19206;DHT22;59358;52.134;5.596;2022-10-13T05:42:28;12.30;99.90
19206;DHT22;59358;52.134;5.596;2022-10-13T05:44:57;12.30;99.90
19206;DHT22;59358;52.134;5.596;2022-10-13T05:47:23;12.30;99.90
19206;DHT22;59358;52.134;5.596;2022-10-13T05:49:52;12.30;99.90
19206;DHT22;59358;52.134;5.596;2022-10-13T05:52:20;12.40;99.90
19206;DHT22;59358;52.134;5.596;2022-10-13T05:54:50;12.50;99.90
19206;DHT22;59358;52.134;5.596;2022-10-13T05:57:21;12.50;99.90
19206;DHT22;59358;52.134;5.596;2022-10-13T05:59:52;12.50;99.90
19206;DHT22;59358;52.134;5.596;2022-10-13T06:02:25;12.50;99.90
19206;DHT22;59358;52.134;5.596;2022-10-13T06:04:56;12.40;99.90
19206;DHT22;59358;52.134;5.596;2022-10-13T06:07:23;12.40;99.90
19206;DHT22;59358;52.134;5.596;2022-10-13T06:09:50;12.40;99.90
19206;DHT22;59358;52.134;5.596;2022-10-13T06:12:17;12.50;99.90
19206;DHT22;59358;52.134;5.596;2022-10-13T06:14:44;12.50;99.90
19206;DHT22;59358;52.134;5.596;2022-10-13T06:17:11;12.50;99.90
19206;DHT22;59358;52.134;5.596;2022-10-13T06:19:40;12.50;99.90
19206;DHT22;59358;52.134;5.596;2022-10-13T06:22:07;12.60;99.90
19206;DHT22;59358;52.134;5.596;2022-10-13T06:24:34;12.60;99.90
19206;DHT22;59358;52.134;5.596;2022-10-13T06:27:01;12.60;99.90
19206;DHT22;59358;52.134;5.596;2022-10-13T06:29:28;12.70;99.90
19206;DHT22;59358;52.134;5.596;2022-10-13T06:31:54;12.70;99.90
19206;DHT22;59358;52.134;5.596;2022-10-13T06:34:21;12.80;99.90
19206;DHT22;59358;52.134;5.596;2022-10-13T06:36:49;12.70;99.90
19206;DHT22;59358;52.134;5.596;2022-10-13T06:39:16;12.70;99.90
19206;DHT22;59358;52.134;5.596;2022-10-13T06:41:43;12.70;99.90
19206;DHT22;59358;52.134;5.596;2022-10-13T06:44:09;12.70;99.90
19206;DHT22;59358;52.134;5.596;2022-10-13T06:46:36;12.70;99.90
19206;DHT22;59358;52.134;5.596;2022-10-13T06:49:03;12.70;99.90
19206;DHT22;59358;52.134;5.596;2022-10-13T06:51:30;12.60;99.90
19206;DHT22;59358;52.134;5.596;2022-10-13T06:53:58;12.60;99.90
19206;DHT22;59358;52.134;5.596;2022-10-13T06:56:25;12.60;99.90
19206;DHT22;59358;52.134;5.596;2022-10-13T06:58:51;12.60;99.90
19206;DHT22;59358;52.134;5.596;2022-10-13T07:01:18;12.60;99.90
19206;DHT22;59358;52.134;5.596;2022-10-13T07:03:47;12.60;99.90
19206;DHT22;59358;52.134;5.596;2022-10-13T07:06:14;12.60;99.90
19206;DHT22;59358;52.134;5.596;2022-10-13T07:08:41;12.60;99.90
19206;DHT22;59358;52.134;5.596;2022-10-13T07:11:11;12.70;99.90
19206;DHT22;59358;52.134;5.596;2022-10-13T07:13:38;12.70;99.90
19206;DHT22;59358;52.134;5.596;2022-10-13T07:16:06;12.80;99.90
19206;DHT22;59358;52.134;5.596;2022-10-13T07:18:34;12.80;99.90
19206;DHT22;59358;52.134;5.596;2022-10-13T07:21:01;12.90;99.90
19206;DHT22;59358;52.134;5.596;2022-10-13T07:23:29;12.90;99.90
19206;DHT22;59358;52.134;5.596;2022-10-13T07:25:56;13.00;99.90
19206;DHT22;59358;52.134;5.596;2022-10-13T07:28:25;13.00;99.90
19206;DHT22;59358;52.134;5.596;2022-10-13T07:30:52;13.10;99.90
19206;DHT22;59358;52.134;5.596;2022-10-13T07:33:19;13.10;99.90
19206;DHT22;59358;52.134;5.596;2022-10-13T07:35:46;13.10;99.90
19206;DHT22;59358;52.134;5.596;2022-10-13T07:38:14;13.10;99.90
19206;DHT22;59358;52.134;5.596;2022-10-13T07:40:41;13.10;99.90
19206;DHT22;59358;52.134;5.596;2022-10-13T07:43:07;13.20;99.90
19206;DHT22;59358;52.134;5.596;2022-10-13T07:45:35;13.20;99.90
19206;DHT22;59358;52.134;5.596;2022-10-13T07:48:03;13.20;99.90
19206;DHT22;59358;52.134;5.596;2022-10-13T07:50:31;13.20;99.90
19206;DHT22;59358;52.134;5.596;2022-10-13T07:52:58;13.30;99.90
19206;DHT22;59358;52.134;5.596;2022-10-13T07:55:25;13.20;99.90
19206;DHT22;59358;52.134;5.596;2022-10-13T07:57:51;13.30;99.90
19206;DHT22;59358;52.134;5.596;2022-10-13T08:00:18;13.40;99.90
19206;DHT22;59358;52.134;5.596;2022-10-13T08:02:49;13.50;99.90
19206;DHT22;59358;52.134;5.596;2022-10-13T08:05:16;13.60;99.90
19206;DHT22;59358;52.134;5.596;2022-10-13T08:07:43;13.70;99.90
19206;DHT22;59358;52.134;5.596;2022-10-13T08:10:10;13.70;99.90
19206;DHT22;59358;52.134;5.596;2022-10-13T08:12:38;13.80;99.90
19206;DHT22;59358;52.134;5.596;2022-10-13T08:15:06;13.80;99.90
19206;DHT22;59358;52.134;5.596;2022-10-13T08:17:33;13.80;99.90
19206;DHT22;59358;52.134;5.596;2022-10-13T08:20:03;13.80;99.90
19206;DHT22;59358;52.134;5.596;2022-10-13T08:22:30;13.80;99.90
19206;DHT22;59358;52.134;5.596;2022-10-13T08:24:58;13.80;99.90
19206;DHT22;59358;52.134;5.596;2022-10-13T08:27:26;13.80;99.90
19206;DHT22;59358;52.134;5.596;2022-10-13T08:29:53;13.80;99.90
19206;DHT22;59358;52.134;5.596;2022-10-13T08:32:20;14.00;99.90
19206;DHT22;59358;52.134;5.596;2022-10-13T08:34:47;14.10;99.90
19206;DHT22;59358;52.134;5.596;2022-10-13T08:37:17;14.10;99.90
19206;DHT22;59358;52.134;5.596;2022-10-13T08:39:46;14.20;99.90
19206;DHT22;59358;52.134;5.596;2022-10-13T08:42:16;14.50;99.90
19206;DHT22;59358;52.134;5.596;2022-10-13T08:44:47;14.70;99.90
19206;DHT22;59358;52.134;5.596;2022-10-13T08:47:23;15.00;99.90
19206;DHT22;59358;52.134;5.596;2022-10-13T08:49:56;15.20;99.90
19206;DHT22;59358;52.134;5.596;2022-10-13T08:52:26;15.30;99.90
19206;DHT22;59358;52.134;5.596;2022-10-13T08:54:54;14.90;99.90
19206;DHT22;59358;52.134;5.596;2022-10-13T08:57:22;14.60;99.90
19206;DHT22;59358;52.134;5.596;2022-10-13T08:59:49;14.50;99.90
19206;DHT22;59358;52.134;5.596;2022-10-13T09:02:22;14.30;99.90
19206;DHT22;59358;52.134;5.596;2022-10-13T09:04:53;14.30;99.90
19206;DHT22;59358;52.134;5.596;2022-10-13T09:07:22;14.30;99.90
19206;DHT22;59358;52.134;5.596;2022-10-13T09:09:52;14.50;99.90
19206;DHT22;59358;52.134;5.596;2022-10-13T09:12:20;14.60;99.90
19206;DHT22;59358;52.134;5.596;2022-10-13T09:14:57;14.70;99.90
19206;DHT22;59358;52.134;5.596;2022-10-13T09:17:26;14.60;99.90
19206;DHT22;59358;52.134;5.596;2022-10-13T09:19:59;14.50;99.90
19206;DHT22;59358;52.134;5.596;2022-10-13T09:22:27;14.50;99.90
19206;DHT22;59358;52.134;5.596;2022-10-13T09:25:07;14.70;99.90
19206;DHT22;59358;52.134;5.596;2022-10-13T09:27:43;14.90;99.90
19206;DHT22;59358;52.134;5.596;2022-10-13T09:30:31;15.10;99.90
19206;DHT22;59358;52.134;5.596;2022-10-13T09:33:21;15.10;99.90
19206;DHT22;59358;52.134;5.596;2022-10-13T09:36:05;15.20;99.90
19206;DHT22;59358;52.134;5.596;2022-10-13T09:38:35;15.20;99.90
19206;DHT22;59358;52.134;5.596;2022-10-13T09:41:10;15.10;99.90
19206;DHT22;59358;52.134;5.596;2022-10-13T09:43:41;15.00;99.90
19206;DHT22;59358;52.134;5.596;2022-10-13T09:46:12;14.90;99.90
19206;DHT22;59358;52.134;5.596;2022-10-13T09:48:47;15.00;99.90
19206;DHT22;59358;52.134;5.596;2022-10-13T09:51:30;15.00;99.90
19206;DHT22;59358;52.134;5.596;2022-10-13T09:53:58;15.20;99.90
19206;DHT22;59358;52.134;5.596;2022-10-13T09:56:29;15.10;99.90
19206;DHT22;59358;52.134;5.596;2022-10-13T09:59:06;15.00;99.90
19206;DHT22;59358;52.134;5.596;2022-10-13T10:01:37;15.20;99.90
19206;DHT22;59358;52.134;5.596;2022-10-13T10:04:08;15.30;99.90
19206;DHT22;59358;52.134;5.596;2022-10-13T10:06:37;15.40;99.90
19206;DHT22;59358;52.134;5.596;2022-10-13T10:09:18;15.60;99.90
19206;DHT22;59358;52.134;5.596;2022-10-13T10:11:50;15.70;99.90
19206;DHT22;59358;52.134;5.596;2022-10-13T10:14:23;15.80;99.90
19206;DHT22;59358;52.134;5.596;2022-10-13T10:16:56;16.00;99.90
19206;DHT22;59358;52.134;5.596;2022-10-13T10:19:27;16.10;99.90
19206;DHT22;59358;52.134;5.596;2022-10-13T10:22:01;16.10;99.90
19206;DHT22;59358;52.134;5.596;2022-10-13T10:24:36;16.40;99.90
19206;DHT22;59358;52.134;5.596;2022-10-13T10:27:10;16.50;99.90
19206;DHT22;59358;52.134;5.596;2022-10-13T10:29:43;16.50;99.90
19206;DHT22;59358;52.134;5.596;2022-10-13T10:32:26;16.50;99.90
19206;DHT22;59358;52.134;5.596;2022-10-13T10:34:57;16.40;99.90
19206;DHT22;59358;52.134;5.596;2022-10-13T10:37:58;16.60;99.90
19206;DHT22;59358;52.134;5.596;2022-10-13T10:40:35;16.60;99.90
19206;DHT22;59358;52.134;5.596;2022-10-13T10:43:25;16.70;99.90
19206;DHT22;59358;52.134;5.596;2022-10-13T10:45:57;16.70;99.90
19206;DHT22;59358;52.134;5.596;2022-10-13T10:48:29;16.80;99.90
19206;DHT22;59358;52.134;5.596;2022-10-13T10:50:57;16.80;99.90
19206;DHT22;59358;52.134;5.596;2022-10-13T10:53:30;16.80;99.90
19206;DHT22;59358;52.134;5.596;2022-10-13T10:56:02;16.70;99.90
19206;DHT22;59358;52.134;5.596;2022-10-13T10:58:39;16.50;99.90
19206;DHT22;59358;52.134;5.596;2022-10-13T11:01:17;16.50;99.90
19206;DHT22;59358;52.134;5.596;2022-10-13T11:03:54;16.50;99.90
19206;DHT22;59358;52.134;5.596;2022-10-13T11:06:25;16.60;99.90
19206;DHT22;59358;52.134;5.596;2022-10-13T11:08:57;16.50;99.90
19206;DHT22;59358;52.134;5.596;2022-10-13T11:11:38;16.40;99.90
19206;DHT22;59358;52.134;5.596;2022-10-13T11:14:34;16.40;99.90
19206;DHT22;59358;52.134;5.596;2022-10-13T11:17:14;16.30;99.90
19206;DHT22;59358;52.134;5.596;2022-10-13T11:19:42;16.40;99.90
19206;DHT22;59358;52.134;5.596;2022-10-13T11:22:12;16.40;99.90
19206;DHT22;59358;52.134;5.596;2022-10-13T11:27:52;16.50;99.90
19206;DHT22;59358;52.134;5.596;2022-10-13T11:30:44;16.50;99.90
19206;DHT22;59358;52.134;5.596;2022-10-13T11:33:34;16.60;99.90
19206;DHT22;59358;52.134;5.596;2022-10-13T11:42:50;16.40;99.90
19206;DHT22;59358;52.134;5.596;2022-10-13T11:48:50;16.30;99.90
19206;DHT22;59358;52.134;5.596;2022-10-13T11:51:31;16.40;99.90
19206;DHT22;59358;52.134;5.596;2022-10-13T11:54:09;16.00;99.90
19206;DHT22;59358;52.134;5.596;2022-10-13T11:56:45;15.90;99.90
19206;DHT22;59358;52.134;5.596;2022-10-13T11:59:20;15.60;99.90
19206;DHT22;59358;52.134;5.596;2022-10-13T12:01:52;15.70;99.90
19206;DHT22;59358;52.134;5.596;2022-10-13T12:04:22;15.50;99.90
19206;DHT22;59358;52.134;5.596;2022-10-13T12:06:58;15.50;99.90
19206;DHT22;59358;52.134;5.596;2022-10-13T12:09:26;15.50;99.90
19206;DHT22;59358;52.134;5.596;2022-10-13T12:12:00;15.50;99.90
19206;DHT22;59358;52.134;5.596;2022-10-13T12:14:30;15.40;99.90
19206;DHT22;59358;52.134;5.596;2022-10-13T12:16:59;15.20;99.90
19206;DHT22;59358;52.134;5.596;2022-10-13T12:19:29;15.10;99.90
19206;DHT22;59358;52.134;5.596;2022-10-13T12:21:57;15.00;99.90
19206;DHT22;59358;52.134;5.596;2022-10-13T12:24:26;14.90;99.90
19206;DHT22;59358;52.134;5.596;2022-10-13T12:26:54;14.90;99.90
19206;DHT22;59358;52.134;5.596;2022-10-13T12:29:24;15.00;99.90
19206;DHT22;59358;52.134;5.596;2022-10-13T12:31:51;15.00;99.90
19206;DHT22;59358;52.134;5.596;2022-10-13T12:34:21;15.10;99.90
19206;DHT22;59358;52.134;5.596;2022-10-13T12:36:55;15.30;99.90
19206;DHT22;59358;52.134;5.596;2022-10-13T12:39:22;15.40;99.90
19206;DHT22;59358;52.134;5.596;2022-10-13T12:41:51;15.40;99.90
19206;DHT22;59358;52.134;5.596;2022-10-13T12:44:21;15.40;99.90
19206;DHT22;59358;52.134;5.596;2022-10-13T12:46:50;15.40;99.90
19206;DHT22;59358;52.134;5.596;2022-10-13T12:49:21;15.40;99.90
19206;DHT22;59358;52.134;5.596;2022-10-13T12:51:50;15.40;99.90
19206;DHT22;59358;52.134;5.596;2022-10-13T12:54:25;15.50;99.90
19206;DHT22;59358;52.134;5.596;2022-10-13T12:56:55;15.50;99.90
19206;DHT22;59358;52.134;5.596;2022-10-13T12:59:24;15.50;99.90
19206;DHT22;59358;52.134;5.596;2022-10-13T13:01:54;15.60;99.90
19206;DHT22;59358;52.134;5.596;2022-10-13T13:04:29;15.40;99.90
19206;DHT22;59358;52.134;5.596;2022-10-13T13:06:58;15.50;99.90
19206;DHT22;59358;52.134;5.596;2022-10-13T13:09:28;15.30;99.90
19206;DHT22;59358;52.134;5.596;2022-10-13T13:12:19;15.30;99.90
19206;DHT22;59358;52.134;5.596;2022-10-13T13:14:48;15.40;99.90
19206;DHT22;59358;52.134;5.596;2022-10-13T13:17:23;15.40;99.90
19206;DHT22;59358;52.134;5.596;2022-10-13T13:19:52;15.30;99.90
19206;DHT22;59358;52.134;5.596;2022-10-13T13:22:19;15.20;99.90
19206;DHT22;59358;52.134;5.596;2022-10-13T13:24:48;15.10;99.90
19206;DHT22;59358;52.134;5.596;2022-10-13T13:27:22;14.90;99.90
19206;DHT22;59358;52.134;5.596;2022-10-13T13:29:50;14.80;99.90
19206;DHT22;59358;52.134;5.596;2022-10-13T13:32:18;14.70;99.90
19206;DHT22;59358;52.134;5.596;2022-10-13T13:34:46;14.60;99.90
19206;DHT22;59358;52.134;5.596;2022-10-13T13:37:25;14.50;99.90
19206;DHT22;59358;52.134;5.596;2022-10-13T13:39:54;14.50;99.90
19206;DHT22;59358;52.134;5.596;2022-10-13T13:42:21;14.40;99.90
19206;DHT22;59358;52.134;5.596;2022-10-13T13:44:48;14.40;99.90
19206;DHT22;59358;52.134;5.596;2022-10-13T13:47:18;14.50;99.90
19206;DHT22;59358;52.134;5.596;2022-10-13T13:49:45;14.70;99.90
19206;DHT22;59358;52.134;5.596;2022-10-13T13:52:12;14.90;99.90
19206;DHT22;59358;52.134;5.596;2022-10-13T13:54:39;15.10;99.90
19206;DHT22;59358;52.134;5.596;2022-10-13T13:57:08;15.20;99.90
19206;DHT22;59358;52.134;5.596;2022-10-13T13:59:35;15.30;99.90
19206;DHT22;59358;52.134;5.596;2022-10-13T14:02:03;15.30;99.90
19206;DHT22;59358;52.134;5.596;2022-10-13T14:04:30;15.30;99.90
19206;DHT22;59358;52.134;5.596;2022-10-13T14:06:57;15.40;99.90
19206;DHT22;59358;52.134;5.596;2022-10-13T14:09:23;15.40;99.90
19206;DHT22;59358;52.134;5.596;2022-10-13T14:11:50;15.50;99.90
19206;DHT22;59358;52.134;5.596;2022-10-13T14:14:19;15.50;99.90
19206;DHT22;59358;52.134;5.596;2022-10-13T14:16:45;15.70;99.90
19206;DHT22;59358;52.134;5.596;2022-10-13T14:19:12;16.10;99.90
19206;DHT22;59358;52.134;5.596;2022-10-13T14:21:39;16.40;99.90
19206;DHT22;59358;52.134;5.596;2022-10-13T14:24:06;16.30;99.90
19206;DHT22;59358;52.134;5.596;2022-10-13T14:26:33;16.20;99.90
19206;DHT22;59358;52.134;5.596;2022-10-13T14:29:00;16.20;99.90
19206;DHT22;59358;52.134;5.596;2022-10-13T14:31:29;16.20;99.90
19206;DHT22;59358;52.134;5.596;2022-10-13T14:33:56;16.20;99.90
19206;DHT22;59358;52.134;5.596;2022-10-13T14:36:23;16.20;99.90
19206;DHT22;59358;52.134;5.596;2022-10-13T14:38:50;16.10;99.90
19206;DHT22;59358;52.134;5.596;2022-10-13T14:41:17;15.90;99.90
19206;DHT22;59358;52.134;5.596;2022-10-13T14:43:44;15.80;99.90
19206;DHT22;59358;52.134;5.596;2022-10-13T14:46:11;15.70;99.90
19206;DHT22;59358;52.134;5.596;2022-10-13T14:48:40;15.70;99.90
19206;DHT22;59358;52.134;5.596;2022-10-13T14:51:09;15.70;99.90
19206;DHT22;59358;52.134;5.596;2022-10-13T14:53:38;15.80;99.90
19206;DHT22;59358;52.134;5.596;2022-10-13T14:56:15;15.80;99.90
19206;DHT22;59358;52.134;5.596;2022-10-13T14:58:43;15.80;99.90
19206;DHT22;59358;52.134;5.596;2022-10-13T15:01:09;15.70;99.90
19206;DHT22;59358;52.134;5.596;2022-10-13T15:03:36;15.70;99.90
19206;DHT22;59358;52.134;5.596;2022-10-13T15:06:05;15.70;99.90
19206;DHT22;59358;52.134;5.596;2022-10-13T15:08:32;15.60;99.90
19206;DHT22;59358;52.134;5.596;2022-10-13T15:10:59;15.70;99.90
19206;DHT22;59358;52.134;5.596;2022-10-13T15:13:26;15.60;99.90
19206;DHT22;59358;52.134;5.596;2022-10-13T15:15:53;15.50;99.90
19206;DHT22;59358;52.134;5.596;2022-10-13T15:18:19;15.50;99.90
19206;DHT22;59358;52.134;5.596;2022-10-13T15:20:47;15.50;99.90
19206;DHT22;59358;52.134;5.596;2022-10-13T15:23:15;15.40;99.90
19206;DHT22;59358;52.134;5.596;2022-10-13T15:25:49;15.40;99.90
19206;DHT22;59358;52.134;5.596;2022-10-13T15:28:16;15.20;99.90
19206;DHT22;59358;52.134;5.596;2022-10-13T15:30:42;15.10;99.90
19206;DHT22;59358;52.134;5.596;2022-10-13T15:33:10;15.10;99.90
19206;DHT22;59358;52.134;5.596;2022-10-13T15:35:36;15.10;99.90
19206;DHT22;59358;52.134;5.596;2022-10-13T15:38:03;15.10;99.90
19206;DHT22;59358;52.134;5.596;2022-10-13T15:40:32;15.10;99.90
19206;DHT22;59358;52.134;5.596;2022-10-13T15:43:00;15.10;99.90
19206;DHT22;59358;52.134;5.596;2022-10-13T15:45:27;15.00;99.90
19206;DHT22;59358;52.134;5.596;2022-10-13T15:47:54;14.90;99.90
19206;DHT22;59358;52.134;5.596;2022-10-13T15:50:22;15.00;99.90
19206;DHT22;59358;52.134;5.596;2022-10-13T15:52:50;14.90;99.90
19206;DHT22;59358;52.134;5.596;2022-10-13T15:55:17;14.90;99.90
19206;DHT22;59358;52.134;5.596;2022-10-13T15:57:45;15.00;99.90
19206;DHT22;59358;52.134;5.596;2022-10-13T16:00:13;15.00;99.90